sensor_id;sensor_type;location;lat;lon;timestamp;pressure;altitude;pressure_sealevel;temperature;humidity
69911;BME280;63555;49.920;17.868;2023-02-21T00:03:49;98215.81;;;7.96;69.04
69911;BME280;63555;49.920;17.868;2023-02-21T00:09:07;98223.78;;;7.94;69.83
69911;BME280;63555;49.920;17.868;2023-02-21T00:14:26;98208.78;;;7.96;69.29
69911;BME280;63555;49.920;17.868;2023-02-21T00:19:45;98235.78;;;8.10;69.08
69911;BME280;63555;49.920;17.868;2023-02-21T00:25:04;98231.66;;;8.18;69.25
69911;BME280;63555;49.920;17.868;2023-02-21T00:30:23;98223.19;;;8.26;69.31
69911;BME280;63555;49.920;17.868;2023-02-21T00:35:41;98235.88;;;8.32;68.62
69911;BME280;63555;49.920;17.868;2023-02-21T00:41:00;98222.56;;;8.46;68.45
69911;BME280;63555;49.920;17.868;2023-02-21T00:46:20;98222.59;;;8.57;68.06
69911;BME280;63555;49.920;17.868;2023-02-21T00:51:39;98226.66;;;8.61;67.69
69911;BME280;63555;49.920;17.868;2023-02-21T00:56:57;98230.84;;;8.64;67.72
69911;BME280;63555;49.920;17.868;2023-02-21T01:02:16;98235.25;;;8.63;67.45
69911;BME280;63555;49.920;17.868;2023-02-21T01:07:36;98231.78;;;8.63;67.43
69911;BME280;63555;49.920;17.868;2023-02-21T01:12:55;98227.13;;;8.55;67.54
69911;BME280;63555;49.920;17.868;2023-02-21T01:18:13;98225.06;;;8.48;67.72
69911;BME280;63555;49.920;17.868;2023-02-21T01:23:32;98217.31;;;8.46;67.69
69911;BME280;63555;49.920;17.868;2023-02-21T01:28:51;98207.16;;;8.42;67.91
69911;BME280;63555;49.920;17.868;2023-02-21T01:34:10;98210.13;;;8.37;67.87
69911;BME280;63555;49.920;17.868;2023-02-21T01:39:29;98213.19;;;8.31;68.29
69911;BME280;63555;49.920;17.868;2023-02-21T01:45:05;98198.59;;;8.27;67.93
69911;BME280;63555;49.920;17.868;2023-02-21T01:50:29;98212.91;;;8.23;68.26
69911;BME280;63555;49.920;17.868;2023-02-21T01:55:49;98193.53;;;8.13;68.54
69911;BME280;63555;49.920;17.868;2023-02-21T02:01:13;98186.25;;;8.05;68.65
69911;BME280;63555;49.920;17.868;2023-02-21T02:06:34;98175.13;;;8.02;69.08
69911;BME280;63555;49.920;17.868;2023-02-21T02:12:30;98177.28;;;8.08;68.85
69911;BME280;63555;49.920;17.868;2023-02-21T02:39:17;98170.72;;;8.02;69.19
69911;BME280;63555;49.920;17.868;2023-02-21T02:44:30;98166.19;;;8.04;69.22
69911;BME280;63555;49.920;17.868;2023-02-21T02:49:37;98156.75;;;8.02;69.20
69911;BME280;63555;49.920;17.868;2023-02-21T02:54:40;98165.47;;;8.02;69.04
69911;BME280;63555;49.920;17.868;2023-02-21T02:59:44;98153.06;;;8.04;69.15
69911;BME280;63555;49.920;17.868;2023-02-21T03:05:17;98156.06;;;8.11;68.89
69911;BME280;63555;49.920;17.868;2023-02-21T03:15:48;98185.66;;;8.13;69.05
69911;BME280;63555;49.920;17.868;2023-02-21T03:20:56;98166.34;;;8.14;69.07
69911;BME280;63555;49.920;17.868;2023-02-21T03:25:59;98169.69;;;8.16;69.15
69911;BME280;63555;49.920;17.868;2023-02-21T03:31:02;98174.69;;;8.19;69.06
69911;BME280;63555;49.920;17.868;2023-02-21T03:36:05;98182.34;;;8.22;69.09
69911;BME280;63555;49.920;17.868;2023-02-21T03:41:07;98177.81;;;8.24;69.02
69911;BME280;63555;49.920;17.868;2023-02-21T03:46:07;98182.84;;;8.27;68.88
69911;BME280;63555;49.920;17.868;2023-02-21T03:51:08;98182.72;;;8.28;69.15
69911;BME280;63555;49.920;17.868;2023-02-21T03:56:08;98180.22;;;8.27;68.79
69911;BME280;63555;49.920;17.868;2023-02-21T04:01:08;98186.53;;;8.24;69.23
69911;BME280;63555;49.920;17.868;2023-02-21T04:06:09;98177.94;;;8.22;69.40
69911;BME280;63555;49.920;17.868;2023-02-21T04:11:09;98173.97;;;8.17;69.63
69911;BME280;63555;49.920;17.868;2023-02-21T04:16:09;98183.16;;;8.11;70.13
69911;BME280;63555;49.920;17.868;2023-02-21T04:21:10;98155.81;;;8.03;70.18
69911;BME280;63555;49.920;17.868;2023-02-21T04:26:10;98158.78;;;7.98;70.39
69911;BME280;63555;49.920;17.868;2023-02-21T04:31:13;98178.09;;;7.97;70.49
69911;BME280;63555;49.920;17.868;2023-02-21T04:36:14;98167.81;;;7.94;70.69
69911;BME280;63555;49.920;17.868;2023-02-21T04:41:15;98165.09;;;7.95;70.80
69911;BME280;63555;49.920;17.868;2023-02-21T04:46:17;98171.78;;;7.99;70.55
69911;BME280;63555;49.920;17.868;2023-02-21T04:51:20;98184.78;;;8.01;70.50
69911;BME280;63555;49.920;17.868;2023-02-21T04:56:23;98168.31;;;7.99;70.88
69911;BME280;63555;49.920;17.868;2023-02-21T05:01:28;98167.38;;;8.00;70.85
69911;BME280;63555;49.920;17.868;2023-02-21T05:06:30;98156.75;;;8.02;70.70
69911;BME280;63555;49.920;17.868;2023-02-21T05:11:32;98156.03;;;7.99;70.83
69911;BME280;63555;49.920;17.868;2023-02-21T05:16:36;98166.88;;;7.95;70.83
69911;BME280;63555;49.920;17.868;2023-02-21T05:21:37;98173.31;;;7.91;71.34
69911;BME280;63555;49.920;17.868;2023-02-21T05:26:37;98161.34;;;7.87;71.08
69911;BME280;63555;49.920;17.868;2023-02-21T05:31:38;98174.75;;;7.71;71.27
69911;BME280;63555;49.920;17.868;2023-02-21T05:36:38;98157.28;;;7.59;72.10
69911;BME280;63555;49.920;17.868;2023-02-21T05:41:45;98167.00;;;7.46;72.12
69911;BME280;63555;49.920;17.868;2023-02-21T05:46:46;98177.75;;;7.30;72.19
69911;BME280;63555;49.920;17.868;2023-02-21T05:51:46;98180.31;;;7.19;72.88
69911;BME280;63555;49.920;17.868;2023-02-21T05:56:49;98175.78;;;7.21;73.24
69911;BME280;63555;49.920;17.868;2023-02-21T06:01:50;98185.00;;;7.26;72.74
69911;BME280;63555;49.920;17.868;2023-02-21T06:06:50;98188.03;;;7.33;73.09
69911;BME280;63555;49.920;17.868;2023-02-21T06:11:55;98185.19;;;7.36;72.79
69911;BME280;63555;49.920;17.868;2023-02-21T06:16:55;98190.72;;;7.44;73.19
69911;BME280;63555;49.920;17.868;2023-02-21T06:21:56;98197.59;;;7.58;73.00
69911;BME280;63555;49.920;17.868;2023-02-21T06:26:56;98200.03;;;7.72;72.57
69911;BME280;63555;49.920;17.868;2023-02-21T06:31:58;98207.03;;;7.84;73.04
69911;BME280;63555;49.920;17.868;2023-02-21T06:36:58;98221.91;;;7.96;72.53
69911;BME280;63555;49.920;17.868;2023-02-21T06:41:59;98220.03;;;8.10;72.47
69911;BME280;63555;49.920;17.868;2023-02-21T06:46:59;98211.47;;;8.19;72.50
69911;BME280;63555;49.920;17.868;2023-02-21T06:51:59;98214.00;;;8.31;72.35
69911;BME280;63555;49.920;17.868;2023-02-21T06:57:00;98221.84;;;8.44;71.99
69911;BME280;63555;49.920;17.868;2023-02-21T07:02:00;98228.19;;;8.53;71.86
69911;BME280;63555;49.920;17.868;2023-02-21T07:07:02;98229.28;;;8.61;71.95
69911;BME280;63555;49.920;17.868;2023-02-21T07:12:02;98227.78;;;8.70;71.71
69911;BME280;63555;49.920;17.868;2023-02-21T07:17:03;98237.22;;;8.84;71.22
69911;BME280;63555;49.920;17.868;2023-02-21T07:22:03;98242.50;;;8.95;71.06
69911;BME280;63555;49.920;17.868;2023-02-21T07:27:04;98250.50;;;9.05;70.83
69911;BME280;63555;49.920;17.868;2023-02-21T07:32:04;98264.97;;;9.10;70.59
69911;BME280;63555;49.920;17.868;2023-02-21T07:37:04;98264.25;;;9.08;70.77
69911;BME280;63555;49.920;17.868;2023-02-21T07:42:05;98269.53;;;9.08;70.91
69911;BME280;63555;49.920;17.868;2023-02-21T07:47:07;98283.16;;;9.13;70.97
69911;BME280;63555;49.920;17.868;2023-02-21T07:52:09;98268.31;;;9.23;70.89
69911;BME280;63555;49.920;17.868;2023-02-21T07:57:10;98274.53;;;9.34;70.70
69911;BME280;63555;49.920;17.868;2023-02-21T08:02:10;98259.47;;;9.58;70.71
69911;BME280;63555;49.920;17.868;2023-02-21T08:07:11;98282.56;;;10.09;69.77
69911;BME280;63555;49.920;17.868;2023-02-21T08:12:11;98278.34;;;10.17;68.81
69911;BME280;63555;49.920;17.868;2023-02-21T08:17:11;98287.47;;;10.13;68.90
69911;BME280;63555;49.920;17.868;2023-02-21T08:22:13;98288.19;;;10.15;69.16
69911;BME280;63555;49.920;17.868;2023-02-21T08:27:13;98277.94;;;10.44;69.26
69911;BME280;63555;49.920;17.868;2023-02-21T08:32:13;98286.38;;;10.80;68.06
69911;BME280;63555;49.920;17.868;2023-02-21T08:37:14;98302.91;;;10.82;67.61
69911;BME280;63555;49.920;17.868;2023-02-21T08:42:19;98307.22;;;10.62;67.75
69911;BME280;63555;49.920;17.868;2023-02-21T08:47:19;98320.31;;;10.52;68.30
69911;BME280;63555;49.920;17.868;2023-02-21T08:52:20;98330.50;;;10.57;68.25
69911;BME280;63555;49.920;17.868;2023-02-21T08:57:20;98309.66;;;10.75;68.37
69911;BME280;63555;49.920;17.868;2023-02-21T09:02:23;98305.81;;;11.00;67.65
69911;BME280;63555;49.920;17.868;2023-02-21T09:07:28;98287.06;;;11.54;67.65
69911;BME280;63555;49.920;17.868;2023-02-21T09:12:30;98296.88;;;12.32;65.62
69911;BME280;63555;49.920;17.868;2023-02-21T09:17:30;98287.56;;;12.28;64.70
69911;BME280;63555;49.920;17.868;2023-02-21T09:22:33;98286.00;;;12.55;65.23
69911;BME280;63555;49.920;17.868;2023-02-21T09:27:33;98294.53;;;14.44;62.56
69911;BME280;63555;49.920;17.868;2023-02-21T09:32:37;98280.53;;;16.39;58.49
69911;BME280;63555;49.920;17.868;2023-02-21T09:37:38;98296.41;;;17.86;55.12
69911;BME280;63555;49.920;17.868;2023-02-21T09:42:39;98303.00;;;19.43;52.58
69911;BME280;63555;49.920;17.868;2023-02-21T09:47:40;98294.28;;;20.65;49.50
69911;BME280;63555;49.920;17.868;2023-02-21T09:52:41;98298.06;;;19.69;49.70
69911;BME280;63555;49.920;17.868;2023-02-21T09:57:41;98294.19;;;19.57;49.53
69911;BME280;63555;49.920;17.868;2023-02-21T10:03:38;98299.13;;;20.19;48.32
69911;BME280;63555;49.920;17.868;2023-02-21T10:08:31;98294.19;;;19.72;46.81
69911;BME280;63555;49.920;17.868;2023-02-21T10:13:44;98304.63;;;18.46;48.98
69911;BME280;63555;49.920;17.868;2023-02-21T10:24:13;98311.25;;;16.09;52.42
69911;BME280;63555;49.920;17.868;2023-02-21T10:29:21;98319.56;;;15.20;53.71
69911;BME280;63555;49.920;17.868;2023-02-21T10:34:25;98310.88;;;14.21;55.29
69911;BME280;63555;49.920;17.868;2023-02-21T10:39:35;98314.47;;;13.38;56.73
69911;BME280;63555;49.920;17.868;2023-02-21T10:44:38;98313.00;;;12.77;58.15
69911;BME280;63555;49.920;17.868;2023-02-21T10:49:51;98337.78;;;12.38;59.21
69911;BME280;63555;49.920;17.868;2023-02-21T10:55:00;98330.47;;;12.01;59.79
69911;BME280;63555;49.920;17.868;2023-02-21T11:00:01;98333.19;;;11.80;60.41
69911;BME280;63555;49.920;17.868;2023-02-21T11:05:29;98327.72;;;11.72;61.22
69911;BME280;63555;49.920;17.868;2023-02-21T11:10:35;98329.47;;;11.62;61.22
69911;BME280;63555;49.920;17.868;2023-02-21T11:15:36;98340.72;;;11.55;61.67
69911;BME280;63555;49.920;17.868;2023-02-21T11:20:37;98330.69;;;11.48;61.76
69911;BME280;63555;49.920;17.868;2023-02-21T11:25:38;98321.41;;;11.64;61.91
69911;BME280;63555;49.920;17.868;2023-02-21T11:36:14;98333.66;;;12.05;61.66
69911;BME280;63555;49.920;17.868;2023-02-21T11:41:25;98326.72;;;12.04;62.22
69911;BME280;63555;49.920;17.868;2023-02-21T11:46:44;98324.53;;;12.19;62.13
69911;BME280;63555;49.920;17.868;2023-02-21T11:52:06;98330.09;;;12.16;62.13
69911;BME280;63555;49.920;17.868;2023-02-21T12:07:48;98325.94;;;12.90;60.85
69911;BME280;63555;49.920;17.868;2023-02-21T12:13:28;98317.41;;;13.35;61.19
69911;BME280;63555;49.920;17.868;2023-02-21T12:35:03;98300.22;;;19.22;50.41
69911;BME280;63555;49.920;17.868;2023-02-21T12:50:47;98295.69;;;19.22;50.18
69911;BME280;63555;49.920;17.868;2023-02-21T12:56:37;98297.19;;;19.39;48.68
69911;BME280;63555;49.920;17.868;2023-02-21T13:01:54;98310.00;;;17.60;51.16
69911;BME280;63555;49.920;17.868;2023-02-21T13:07:30;98297.63;;;16.12;53.05
69911;BME280;63555;49.920;17.868;2023-02-21T13:12:46;98304.59;;;15.45;54.40
69911;BME280;63555;49.920;17.868;2023-02-21T13:22:57;98301.88;;;14.32;55.85
69911;BME280;63555;49.920;17.868;2023-02-21T13:28:03;98307.44;;;13.56;57.19
69911;BME280;63555;49.920;17.868;2023-02-21T13:33:23;98298.38;;;12.93;58.46
69911;BME280;63555;49.920;17.868;2023-02-21T13:38:28;98311.78;;;12.53;59.19
69911;BME280;63555;49.920;17.868;2023-02-21T13:43:32;98313.97;;;12.19;60.05
69911;BME280;63555;49.920;17.868;2023-02-21T13:48:34;98320.16;;;11.98;60.44
69911;BME280;63555;49.920;17.868;2023-02-21T13:54:10;98315.66;;;11.79;61.25
69911;BME280;63555;49.920;17.868;2023-02-21T14:04:53;98323.38;;;11.62;62.24
69911;BME280;63555;49.920;17.868;2023-02-21T14:09:58;98327.13;;;11.69;61.56
69911;BME280;63555;49.920;17.868;2023-02-21T14:15:05;98332.22;;;11.82;61.63
69911;BME280;63555;49.920;17.868;2023-02-21T14:20:14;98329.56;;;11.82;61.48
69911;BME280;63555;49.920;17.868;2023-02-21T14:25:18;98333.56;;;11.76;62.30
69911;BME280;63555;49.920;17.868;2023-02-21T14:30:28;98326.41;;;11.97;61.60
69911;BME280;63555;49.920;17.868;2023-02-21T14:35:34;98332.84;;;12.04;61.47
69911;BME280;63555;49.920;17.868;2023-02-21T14:40:46;98330.06;;;12.06;61.44
69911;BME280;63555;49.920;17.868;2023-02-21T15:02:32;98336.47;;;11.22;63.46
69911;BME280;63555;49.920;17.868;2023-02-21T15:07:52;98340.50;;;10.95;64.19
69911;BME280;63555;49.920;17.868;2023-02-21T15:13:03;98353.00;;;10.61;65.17
69911;BME280;63555;49.920;17.868;2023-02-21T15:18:10;98357.66;;;10.14;66.62
69911;BME280;63555;49.920;17.868;2023-02-21T15:23:14;98367.63;;;9.66;68.52
69911;BME280;63555;49.920;17.868;2023-02-21T15:28:26;98380.38;;;9.26;70.22
69911;BME280;63555;49.920;17.868;2023-02-21T15:33:32;98389.75;;;8.95;71.35
69911;BME280;63555;49.920;17.868;2023-02-21T15:43:52;98411.06;;;8.55;73.38
69911;BME280;63555;49.920;17.868;2023-02-21T15:48:55;98405.66;;;8.46;74.10
69911;BME280;63555;49.920;17.868;2023-02-21T15:59:19;98411.25;;;8.28;74.95
69911;BME280;63555;49.920;17.868;2023-02-21T16:04:34;98417.91;;;8.21;75.64
69911;BME280;63555;49.920;17.868;2023-02-21T16:09:35;98421.81;;;8.16;75.77
69911;BME280;63555;49.920;17.868;2023-02-21T16:14:47;98416.88;;;8.11;75.90
69911;BME280;63555;49.920;17.868;2023-02-21T16:20:00;98421.72;;;8.05;76.31
69911;BME280;63555;49.920;17.868;2023-02-21T16:30:14;98427.13;;;7.90;76.86
69911;BME280;63555;49.920;17.868;2023-02-21T16:35:19;98419.03;;;7.81;77.17
69911;BME280;63555;49.920;17.868;2023-02-21T16:40:23;98423.00;;;7.74;77.40
69911;BME280;63555;49.920;17.868;2023-02-21T16:45:25;98427.63;;;7.70;77.61
69911;BME280;63555;49.920;17.868;2023-02-21T16:55:31;98436.44;;;7.69;78.25
69911;BME280;63555;49.920;17.868;2023-02-21T17:00:32;98434.97;;;7.65;77.92
69911;BME280;63555;49.920;17.868;2023-02-21T17:05:33;98442.84;;;7.65;78.67
69911;BME280;63555;49.920;17.868;2023-02-21T17:10:35;98443.81;;;7.64;78.16
69911;BME280;63555;49.920;17.868;2023-02-21T17:15:35;98447.38;;;7.63;78.63
69911;BME280;63555;49.920;17.868;2023-02-21T17:20:36;98450.94;;;7.62;78.70
69911;BME280;63555;49.920;17.868;2023-02-21T17:25:36;98459.03;;;7.59;78.98
69911;BME280;63555;49.920;17.868;2023-02-21T17:30:36;98464.38;;;7.57;79.40
69911;BME280;63555;49.920;17.868;2023-02-21T17:35:38;98467.00;;;7.57;79.03
69911;BME280;63555;49.920;17.868;2023-02-21T17:40:38;98468.56;;;7.60;79.65
69911;BME280;63555;49.920;17.868;2023-02-21T17:45:39;98472.88;;;7.61;79.33
69911;BME280;63555;49.920;17.868;2023-02-21T17:50:39;98481.47;;;7.63;79.68
69911;BME280;63555;49.920;17.868;2023-02-21T17:55:41;98484.75;;;7.66;79.53
69911;BME280;63555;49.920;17.868;2023-02-21T18:00:42;98478.75;;;7.64;79.58
69911;BME280;63555;49.920;17.868;2023-02-21T18:05:45;98485.16;;;7.60;79.19
69911;BME280;63555;49.920;17.868;2023-02-21T18:10:45;98480.00;;;7.59;80.04
69911;BME280;63555;49.920;17.868;2023-02-21T18:15:46;98482.63;;;7.59;80.06
69911;BME280;63555;49.920;17.868;2023-02-21T18:20:46;98479.06;;;7.60;79.94
69911;BME280;63555;49.920;17.868;2023-02-21T18:25:47;98482.44;;;7.62;79.70
69911;BME280;63555;49.920;17.868;2023-02-21T18:30:47;98485.78;;;7.64;80.32
69911;BME280;63555;49.920;17.868;2023-02-21T18:35:52;98484.22;;;7.61;80.11
69911;BME280;63555;49.920;17.868;2023-02-21T18:40:53;98502.59;;;7.61;80.65
69911;BME280;63555;49.920;17.868;2023-02-21T18:45:55;98492.41;;;7.57;79.97
69911;BME280;63555;49.920;17.868;2023-02-21T18:50:55;98496.16;;;7.53;80.11
69911;BME280;63555;49.920;17.868;2023-02-21T18:55:56;98504.97;;;7.39;79.90
69911;BME280;63555;49.920;17.868;2023-02-21T19:00:57;98501.47;;;7.26;80.43
69911;BME280;63555;49.920;17.868;2023-02-21T19:05:57;98505.44;;;7.19;80.41
69911;BME280;63555;49.920;17.868;2023-02-21T19:10:58;98496.41;;;7.10;80.85
69911;BME280;63555;49.920;17.868;2023-02-21T19:15:58;98499.53;;;7.02;81.09
69911;BME280;63555;49.920;17.868;2023-02-21T19:20:59;98497.00;;;7.01;80.60
69911;BME280;63555;49.920;17.868;2023-02-21T19:25:59;98499.63;;;7.01;81.21
69911;BME280;63555;49.920;17.868;2023-02-21T19:31:00;98496.19;;;7.00;81.45
69911;BME280;63555;49.920;17.868;2023-02-21T19:36:04;98510.88;;;7.03;80.89
69911;BME280;63555;49.920;17.868;2023-02-21T19:41:06;98510.75;;;7.05;81.46
69911;BME280;63555;49.920;17.868;2023-02-21T19:46:06;98522.53;;;7.12;80.87
69911;BME280;63555;49.920;17.868;2023-02-21T19:51:13;98535.03;;;7.21;81.26
69911;BME280;63555;49.920;17.868;2023-02-21T19:56:14;98532.97;;;7.26;81.41
69911;BME280;63555;49.920;17.868;2023-02-21T20:01:14;98548.28;;;7.32;81.02
69911;BME280;63555;49.920;17.868;2023-02-21T20:06:15;98557.75;;;7.34;81.16
69911;BME280;63555;49.920;17.868;2023-02-21T20:11:17;98565.41;;;7.38;80.63
69911;BME280;63555;49.920;17.868;2023-02-21T20:16:18;98572.53;;;7.35;81.35
69911;BME280;63555;49.920;17.868;2023-02-21T20:21:23;98575.47;;;7.31;80.68
69911;BME280;63555;49.920;17.868;2023-02-21T20:26:27;98582.69;;;7.27;80.88
69911;BME280;63555;49.920;17.868;2023-02-21T20:31:29;98587.28;;;7.24;81.26
69911;BME280;63555;49.920;17.868;2023-02-21T20:36:34;98589.38;;;7.19;81.25
69911;BME280;63555;49.920;17.868;2023-02-21T20:41:35;98595.75;;;7.15;80.34
69911;BME280;63555;49.920;17.868;2023-02-21T20:46:39;98586.41;;;7.11;80.87
69911;BME280;63555;49.920;17.868;2023-02-21T20:51:42;98598.97;;;7.06;80.72
69911;BME280;63555;49.920;17.868;2023-02-21T20:56:43;98596.00;;;6.97;80.76
69911;BME280;63555;49.920;17.868;2023-02-21T21:01:44;98605.06;;;6.92;80.81
69911;BME280;63555;49.920;17.868;2023-02-21T21:06:47;98611.44;;;6.88;80.65
69911;BME280;63555;49.920;17.868;2023-02-21T21:11:48;98619.59;;;6.83;80.88
69911;BME280;63555;49.920;17.868;2023-02-21T21:16:49;98619.59;;;6.83;80.58
69911;BME280;63555;49.920;17.868;2023-02-21T21:21:51;98623.78;;;6.86;81.03
69911;BME280;63555;49.920;17.868;2023-02-21T21:26:52;98629.97;;;6.85;80.19
69911;BME280;63555;49.920;17.868;2023-02-21T21:31:53;98638.66;;;6.85;80.53
69911;BME280;63555;49.920;17.868;2023-02-21T21:36:59;98638.56;;;6.87;80.13
69911;BME280;63555;49.920;17.868;2023-02-21T21:42:01;98639.50;;;6.86;80.14
69911;BME280;63555;49.920;17.868;2023-02-21T21:47:05;98647.66;;;6.81;79.98
69911;BME280;63555;49.920;17.868;2023-02-21T21:52:06;98647.38;;;6.71;79.93
69911;BME280;63555;49.920;17.868;2023-02-21T21:57:06;98644.88;;;6.56;80.01
69911;BME280;63555;49.920;17.868;2023-02-21T22:02:07;98658.06;;;6.40;80.33
69911;BME280;63555;49.920;17.868;2023-02-21T22:07:10;98654.78;;;6.36;81.06
69911;BME280;63555;49.920;17.868;2023-02-21T22:12:15;98656.66;;;6.34;80.82
69911;BME280;63555;49.920;17.868;2023-02-21T22:17:16;98664.59;;;6.33;80.65
69911;BME280;63555;49.920;17.868;2023-02-21T22:22:16;98658.97;;;6.25;81.05
69911;BME280;63555;49.920;17.868;2023-02-21T22:27:17;98664.75;;;6.16;81.01
69911;BME280;63555;49.920;17.868;2023-02-21T22:32:17;98670.44;;;6.08;80.88
69911;BME280;63555;49.920;17.868;2023-02-21T22:37:18;98666.16;;;6.07;80.91
69911;BME280;63555;49.920;17.868;2023-02-21T22:42:20;98656.53;;;6.07;81.13
69911;BME280;63555;49.920;17.868;2023-02-21T22:47:20;98659.13;;;6.07;81.13
69911;BME280;63555;49.920;17.868;2023-02-21T22:52:21;98665.53;;;6.02;80.40
69911;BME280;63555;49.920;17.868;2023-02-21T22:57:21;98662.63;;;5.92;80.14
69911;BME280;63555;49.920;17.868;2023-02-21T23:02:21;98671.50;;;5.74;80.37
69911;BME280;63555;49.920;17.868;2023-02-21T23:07:21;98665.72;;;5.53;80.11
69911;BME280;63555;49.920;17.868;2023-02-21T23:12:23;98671.56;;;5.42;80.65
69911;BME280;63555;49.920;17.868;2023-02-21T23:17:25;98676.72;;;5.44;81.66
69911;BME280;63555;49.920;17.868;2023-02-21T23:22:26;98679.25;;;5.46;81.68
69911;BME280;63555;49.920;17.868;2023-02-21T23:27:26;98676.22;;;5.37;81.54
69911;BME280;63555;49.920;17.868;2023-02-21T23:32:26;98688.09;;;5.11;80.55
69911;BME280;63555;49.920;17.868;2023-02-21T23:37:27;98690.69;;;4.96;81.53
69911;BME280;63555;49.920;17.868;2023-02-21T23:42:27;98693.47;;;4.93;82.02
69911;BME280;63555;49.920;17.868;2023-02-21T23:47:30;98678.03;;;4.88;81.91
69911;BME280;63555;49.920;17.868;2023-02-21T23:52:30;98685.94;;;4.71;81.17
69911;BME280;63555;49.920;17.868;2023-02-21T23:57:31;98679.38;;;4.46;81.25
